Murdochville, Canada
Current Conditions -  °F | °C
As of 10:00 PM on Thursday 27 Nov 2014 (Local Time) from CYGP Reporting Station
Overcast Overcast  
Wind Chill: 15°   Ceiling: 14000
Heat Index: 21°   Visibility: 15mi
Dew Point: 16°   Wind: 5mph
Humidity: 80%   Direction: 310°NW
Pressure: 29.93"   Gusts: NA
Location:  48.97°N, 65.52°W
Report Text: CYGP 280300Z 31004KT 270V330 15SM SCT030 OVC140 M06/M09 A2993 RMK SC3AC5 SLP137
Loading
Personal Weather Stations






























Interactive Weather Map New forecast layout! Learn more

10-Day Weather Forecast

Advertisements
Track Severe Weather on mobile